createdAt,value
2022-12-25T00:00:07.451Z,14.00
2022-12-25T00:00:20.884Z,11.20
2022-12-25T00:00:27.424Z,8.70
2022-12-25T00:00:37.408Z,9.00
2022-12-25T00:00:47.485Z,11.20
2022-12-25T00:00:58.307Z,9.80
2022-12-25T00:01:07.467Z,10.60
2022-12-25T00:01:17.472Z,12.70
2022-12-25T00:01:27.345Z,12.70
2022-12-25T00:01:37.342Z,9.70
2022-12-25T00:01:47.344Z,7.80
2022-12-25T00:01:58.233Z,7.60
2022-12-25T00:02:07.343Z,11.50
2022-12-25T00:02:17.389Z,13.80
2022-12-25T00:02:27.473Z,12.20
2022-12-25T00:02:37.479Z,7.70
2022-12-25T00:02:47.438Z,7.10
2022-12-25T00:02:57.435Z,6.70
2022-12-25T00:03:07.528Z,6.90
2022-12-25T00:03:17.467Z,5.70
2022-12-25T00:03:27.492Z,5.50
2022-12-25T00:03:37.543Z,5.20
2022-12-25T00:03:47.507Z,5.00
2022-12-25T00:03:57.581Z,5.20
2022-12-25T00:04:07.544Z,6.90
2022-12-25T00:04:17.326Z,7.10
2022-12-25T00:04:27.390Z,13.60
2022-12-25T00:04:37.325Z,13.40
2022-12-25T00:04:47.325Z,17.70
2022-12-25T00:04:57.321Z,9.60
2022-12-25T00:05:07.335Z,11.90
2022-12-25T00:05:17.316Z,7.40
2022-12-25T00:05:28.224Z,7.80
2022-12-25T00:05:37.331Z,7.00
2022-12-25T00:05:47.317Z,7.20
2022-12-25T00:05:57.332Z,8.30
2022-12-25T00:06:07.344Z,7.80
2022-12-25T00:06:17.328Z,12.40
2022-12-25T00:06:27.329Z,10.20
2022-12-25T00:06:38.223Z,8.30
2022-12-25T00:06:47.310Z,7.20
2022-12-25T00:06:57.308Z,8.30
2022-12-25T00:07:07.307Z,8.10
2022-12-25T00:07:17.315Z,12.00
2022-12-25T00:07:27.318Z,11.70
2022-12-25T00:07:37.309Z,13.90
2022-12-25T00:07:47.326Z,9.70
2022-12-25T00:07:57.312Z,11.80
2022-12-25T00:08:07.315Z,9.80
2022-12-25T00:08:17.402Z,13.70
2022-12-25T00:08:27.308Z,11.70
2022-12-25T00:08:37.344Z,12.90
2022-12-25T00:08:47.301Z,11.30
2022-12-25T00:08:57.316Z,9.20
2022-12-25T00:09:08.224Z,9.00
2022-12-25T00:09:17.322Z,16.40
2022-12-25T00:09:27.302Z,16.30
2022-12-25T00:09:37.319Z,11.20
2022-12-25T00:09:48.259Z,6.30
2022-12-25T00:09:57.297Z,7.90
2022-12-25T00:10:07.393Z,10.70
2022-12-25T00:10:17.301Z,8.30
2022-12-25T00:10:27.300Z,6.70
2022-12-25T00:10:43.015Z,5.50
2022-12-25T00:10:47.315Z,8.20
2022-12-25T00:10:57.306Z,15.60
2022-12-25T00:11:07.407Z,20.00
2022-12-25T00:11:17.310Z,22.50
2022-12-25T00:11:28.233Z,22.50
2022-12-25T00:11:37.308Z,18.00
2022-12-25T00:11:47.291Z,14.20
2022-12-25T00:11:58.237Z,15.60
2022-12-25T00:12:07.290Z,15.90
2022-12-25T00:12:17.300Z,18.60
2022-12-25T00:12:28.234Z,10.10
2022-12-25T00:12:37.289Z,17.00
2022-12-25T00:12:47.310Z,12.50
2022-12-25T00:12:57.298Z,12.50
2022-12-25T00:13:07.284Z,11.30
2022-12-25T00:13:17.289Z,11.70
2022-12-25T00:13:27.338Z,11.90
2022-12-25T00:13:37.293Z,10.90
2022-12-25T00:13:47.316Z,10.60
2022-12-25T00:13:57.293Z,10.30
2022-12-25T00:14:07.287Z,6.70
2022-12-25T00:14:17.295Z,7.30
2022-12-25T00:14:27.286Z,10.20
2022-12-25T00:14:37.280Z,10.20
2022-12-25T00:14:47.291Z,8.40
2022-12-25T00:14:57.292Z,16.30
2022-12-25T00:15:07.279Z,18.00
2022-12-25T00:15:17.337Z,20.60
2022-12-25T00:15:27.296Z,12.70
2022-12-25T00:15:37.276Z,10.70
2022-12-25T00:15:47.320Z,10.10
2022-12-25T00:15:57.309Z,9.40
2022-12-25T00:16:07.320Z,17.40
2022-12-25T00:16:17.326Z,21.30
2022-12-25T00:16:27.413Z,19.40
2022-12-25T00:16:38.389Z,12.00
2022-12-25T00:16:47.359Z,7.90
2022-12-25T00:16:57.278Z,8.60
2022-12-25T00:17:07.276Z,11.30
2022-12-25T00:17:17.291Z,11.20
2022-12-25T00:17:27.270Z,8.10
2022-12-25T00:17:37.300Z,13.00
2022-12-25T00:17:47.290Z,17.40
2022-12-25T00:17:57.274Z,15.30
2022-12-25T00:18:07.371Z,9.00
2022-12-25T00:18:17.290Z,9.00
2022-12-25T00:18:27.268Z,9.60
2022-12-25T00:18:37.324Z,8.00
2022-12-25T00:18:47.270Z,7.90
2022-12-25T00:18:57.339Z,9.50
2022-12-25T00:19:07.263Z,9.60
2022-12-25T00:19:17.267Z,15.60
2022-12-25T00:19:28.289Z,13.60
2022-12-25T00:19:37.338Z,15.90
2022-12-25T00:19:47.268Z,7.80
2022-12-25T00:19:57.256Z,7.90
2022-12-25T00:20:07.434Z,11.20
2022-12-25T00:20:18.542Z,9.00
2022-12-25T00:20:27.250Z,9.30
2022-12-25T00:20:37.249Z,7.00
2022-12-25T00:20:47.267Z,7.70
2022-12-25T00:20:57.245Z,10.90
2022-12-25T00:21:07.256Z,7.20
2022-12-25T00:21:17.262Z,8.70
2022-12-25T00:21:27.253Z,6.60
2022-12-25T00:21:37.339Z,7.80
2022-12-25T00:21:48.237Z,8.20
2022-12-25T00:21:57.246Z,8.80
2022-12-25T00:22:07.247Z,8.80
2022-12-25T00:22:17.317Z,11.80
2022-12-25T00:22:27.250Z,11.90
2022-12-25T00:22:37.254Z,11.30
2022-12-25T00:22:47.266Z,10.30
2022-12-25T00:22:57.254Z,10.20
2022-12-25T00:23:07.280Z,15.00
2022-12-25T00:23:17.242Z,12.00
2022-12-25T00:23:28.263Z,15.50
2022-12-25T00:23:40.285Z,14.20
2022-12-25T00:23:47.287Z,21.80
2022-12-25T00:23:57.238Z,16.10
2022-12-25T00:24:07.235Z,16.20
2022-12-25T00:24:17.240Z,10.80
2022-12-25T00:24:27.237Z,19.20
2022-12-25T00:24:37.327Z,13.80
2022-12-25T00:24:47.247Z,13.80
2022-12-25T00:24:57.269Z,10.20
2022-12-25T00:25:08.240Z,15.10
2022-12-25T00:25:17.235Z,15.20
2022-12-25T00:25:27.231Z,15.40
2022-12-25T00:25:37.235Z,13.60
2022-12-25T00:25:47.255Z,11.40
2022-12-25T00:25:57.241Z,8.50
2022-12-25T00:26:07.224Z,6.70
2022-12-25T00:26:17.263Z,9.60
2022-12-25T00:26:28.268Z,9.40
2022-12-25T00:26:37.230Z,12.20
2022-12-25T00:26:47.242Z,10.20
2022-12-25T00:26:57.241Z,10.30
2022-12-25T00:27:07.238Z,9.10
2022-12-25T00:27:17.250Z,7.20
2022-12-25T00:27:27.220Z,9.70
2022-12-25T00:27:37.223Z,10.10
2022-12-25T00:27:47.247Z,14.40
2022-12-25T00:27:57.217Z,14.60
2022-12-25T00:28:07.224Z,14.90
2022-12-25T00:28:17.231Z,12.40
2022-12-25T00:28:27.219Z,13.30
2022-12-25T00:28:37.250Z,11.00
2022-12-25T00:28:47.234Z,13.50
2022-12-25T00:28:57.269Z,12.40
2022-12-25T00:29:07.231Z,14.30
2022-12-25T00:29:17.733Z,16.30
2022-12-25T00:29:27.212Z,16.30
2022-12-25T00:29:37.225Z,16.30
2022-12-25T00:29:47.216Z,11.90
2022-12-25T00:29:57.214Z,8.50
2022-12-25T00:30:07.217Z,8.00
2022-12-25T00:30:17.217Z,7.80
2022-12-25T00:30:27.217Z,7.40
2022-12-25T00:30:37.759Z,8.60
2022-12-25T00:30:47.211Z,14.50
2022-12-25T00:30:57.309Z,16.80
2022-12-25T00:31:07.299Z,17.00
2022-12-25T00:31:17.279Z,8.90
2022-12-25T00:31:27.865Z,9.50
2022-12-25T00:31:37.295Z,17.00
2022-12-25T00:31:47.262Z,16.60
2022-12-25T00:31:57.308Z,13.20
2022-12-25T00:32:07.203Z,6.20
2022-12-25T00:32:17.219Z,6.10
2022-12-25T00:32:27.204Z,9.10
2022-12-25T00:32:37.205Z,8.30
2022-12-25T00:32:47.197Z,12.30
2022-12-25T00:32:57.734Z,9.60
2022-12-25T00:33:07.209Z,11.50
2022-12-25T00:33:17.199Z,13.70
2022-12-25T00:33:27.754Z,16.70
2022-12-25T00:33:37.214Z,14.40
2022-12-25T00:33:47.200Z,10.50
2022-12-25T00:33:57.234Z,10.50
2022-12-25T00:34:07.269Z,12.90
2022-12-25T00:34:17.199Z,15.80
2022-12-25T00:34:27.196Z,12.70
2022-12-25T00:34:37.190Z,12.70
2022-12-25T00:34:47.228Z,10.10
2022-12-25T00:34:57.192Z,10.30
2022-12-25T00:35:07.200Z,6.40
2022-12-25T00:35:17.194Z,6.00
2022-12-25T00:35:27.194Z,6.60
2022-12-25T00:35:37.244Z,6.80
2022-12-25T00:35:47.199Z,8.80
2022-12-25T00:35:57.203Z,7.20
2022-12-25T00:36:07.191Z,9.10
2022-12-25T00:36:17.268Z,9.80
2022-12-25T00:36:27.199Z,14.40
2022-12-25T00:36:41.629Z,13.90
2022-12-25T00:36:47.189Z,12.00
2022-12-25T00:36:57.186Z,7.40
2022-12-25T00:37:07.180Z,7.20
2022-12-25T00:37:17.287Z,8.10
2022-12-25T00:37:27.178Z,13.10
2022-12-25T00:37:37.725Z,14.80
2022-12-25T00:37:47.736Z,13.90
2022-12-25T00:37:57.174Z,11.90
2022-12-25T00:38:07.175Z,14.90
2022-12-25T00:38:17.216Z,14.60
2022-12-25T00:38:27.188Z,11.50
2022-12-25T00:38:37.209Z,5.60
2022-12-25T00:38:47.177Z,11.20
2022-12-25T00:38:57.197Z,11.50
2022-12-25T00:39:07.209Z,18.70
2022-12-25T00:39:17.219Z,18.20
2022-12-25T00:39:27.176Z,22.00
2022-12-25T00:39:37.189Z,19.30
2022-12-25T00:39:47.179Z,14.50
2022-12-25T00:39:57.182Z,13.20
2022-12-25T00:40:07.185Z,18.90
2022-12-25T00:40:17.176Z,18.40
2022-12-25T00:40:29.730Z,17.90
2022-12-25T00:40:37.178Z,9.40
2022-12-25T00:40:47.172Z,11.10
2022-12-25T00:40:57.283Z,11.10
2022-12-25T00:41:07.169Z,9.40
2022-12-25T00:41:17.170Z,12.40
2022-12-25T00:41:27.724Z,10.50
2022-12-25T00:41:37.167Z,12.50
2022-12-25T00:41:47.260Z,7.60
2022-12-25T00:41:57.218Z,11.80
2022-12-25T00:42:07.167Z,11.80
2022-12-25T00:42:17.160Z,14.70
2022-12-25T00:42:27.727Z,10.50
2022-12-25T00:42:37.186Z,10.20
2022-12-25T00:42:47.167Z,9.40
2022-12-25T00:42:57.204Z,11.90
2022-12-25T00:43:07.157Z,14.00
2022-12-25T00:43:17.255Z,14.40
2022-12-25T00:43:27.151Z,13.60
2022-12-25T00:43:37.155Z,14.10
2022-12-25T00:43:47.176Z,9.90
2022-12-25T00:43:57.164Z,10.00
2022-12-25T00:44:07.161Z,7.40
2022-12-25T00:44:17.161Z,11.40
2022-12-25T00:44:27.229Z,15.60
2022-12-25T00:44:37.735Z,18.80
2022-12-25T00:44:47.145Z,18.60
2022-12-25T00:44:57.168Z,22.20
2022-12-25T00:45:07.154Z,22.10
2022-12-25T00:45:17.150Z,22.30
2022-12-25T00:45:27.212Z,15.20
2022-12-25T00:45:37.228Z,15.00
2022-12-25T00:45:47.266Z,12.80
2022-12-25T00:45:57.810Z,15.60
2022-12-25T00:46:07.241Z,10.70
2022-12-25T00:46:17.264Z,8.70
2022-12-25T00:46:27.252Z,10.40
2022-12-25T00:46:37.411Z,10.70
2022-12-25T00:46:47.197Z,12.80
2022-12-25T00:46:57.246Z,6.00
2022-12-25T00:47:07.251Z,7.40
2022-12-25T00:47:17.218Z,7.30
2022-12-25T00:47:27.280Z,7.50
2022-12-25T00:47:37.140Z,8.10
2022-12-25T00:47:47.136Z,6.70
2022-12-25T00:47:57.206Z,10.10
2022-12-25T00:48:07.130Z,9.70
2022-12-25T00:48:17.167Z,16.80
2022-12-25T00:48:27.135Z,16.90
2022-12-25T00:48:37.134Z,14.60
2022-12-25T00:48:47.156Z,14.10
2022-12-25T00:48:57.165Z,10.00
2022-12-25T00:49:07.248Z,9.90
2022-12-25T00:49:17.131Z,8.80
2022-12-25T00:49:27.132Z,8.80
2022-12-25T00:49:37.285Z,18.90
2022-12-25T00:49:47.148Z,13.60
2022-12-25T00:49:57.153Z,15.60
2022-12-25T00:50:07.229Z,7.30
2022-12-25T00:50:17.723Z,7.40
2022-12-25T00:50:27.122Z,8.30
2022-12-25T00:50:37.134Z,8.70
2022-12-25T00:50:47.128Z,12.50
2022-12-25T00:50:57.172Z,13.10
2022-12-25T00:51:07.162Z,13.10
2022-12-25T00:51:17.131Z,11.00
2022-12-25T00:51:27.121Z,7.90
2022-12-25T00:51:37.754Z,9.90
2022-12-25T00:51:47.125Z,12.90
2022-12-25T00:51:57.159Z,13.20
2022-12-25T00:52:07.124Z,13.30
2022-12-25T00:52:17.125Z,10.10
2022-12-25T00:52:27.134Z,11.00
2022-12-25T00:52:37.132Z,11.60
2022-12-25T00:52:47.122Z,14.60
2022-12-25T00:52:57.778Z,13.40
2022-12-25T00:53:07.120Z,10.80
2022-12-25T00:53:17.130Z,14.10
2022-12-25T00:53:27.121Z,12.30
2022-12-25T00:53:37.168Z,12.70
2022-12-25T00:53:47.135Z,8.30
2022-12-25T00:53:57.726Z,8.30
2022-12-25T00:54:07.202Z,13.60
2022-12-25T00:54:17.137Z,14.50
2022-12-25T00:54:27.190Z,16.60
2022-12-25T00:54:37.115Z,11.00
2022-12-25T00:54:47.188Z,11.70
2022-12-25T00:54:57.148Z,7.90
2022-12-25T00:55:07.112Z,8.30
2022-12-25T00:55:17.125Z,8.10
2022-12-25T00:55:27.102Z,8.20
2022-12-25T00:55:37.103Z,12.00
2022-12-25T00:55:49.722Z,20.30
2022-12-25T00:55:57.104Z,18.40
2022-12-25T00:56:07.111Z,17.40
2022-12-25T00:56:17.107Z,11.30
2022-12-25T00:56:27.145Z,15.30
2022-12-25T00:56:37.100Z,12.10
2022-12-25T00:56:47.121Z,10.20
2022-12-25T00:56:57.102Z,9.30
2022-12-25T00:57:07.116Z,11.50
2022-12-25T00:57:17.214Z,16.30
2022-12-25T00:57:27.096Z,18.60
2022-12-25T00:57:37.096Z,16.00
2022-12-25T00:57:47.100Z,15.30
2022-12-25T00:57:57.111Z,12.80
2022-12-25T00:58:07.105Z,13.30
2022-12-25T00:58:17.112Z,9.50
2022-12-25T00:58:27.114Z,12.90
2022-12-25T00:58:37.846Z,17.70
2022-12-25T00:58:47.108Z,22.60
2022-12-25T00:58:57.144Z,24.50
2022-12-25T00:59:07.101Z,23.40
2022-12-25T00:59:17.166Z,15.90
2022-12-25T00:59:27.099Z,12.30
2022-12-25T00:59:37.092Z,11.80
2022-12-25T00:59:47.156Z,14.50
2022-12-25T00:59:57.374Z,17.10
2022-12-25T01:00:07.090Z,13.70
2022-12-25T01:00:17.085Z,15.20
2022-12-25T01:00:27.116Z,8.60
2022-12-25T01:00:37.159Z,10.50
2022-12-25T01:00:47.141Z,9.30
2022-12-25T01:00:57.286Z,13.30
2022-12-25T01:01:07.801Z,15.90
2022-12-25T01:01:17.248Z,13.80
2022-12-25T01:01:27.289Z,8.00
2022-12-25T01:01:37.175Z,7.80
2022-12-25T01:01:47.320Z,9.80
2022-12-25T01:01:57.210Z,12.10
2022-12-25T01:02:07.206Z,12.90
2022-12-25T01:02:17.226Z,17.10
2022-12-25T01:02:27.278Z,15.20
2022-12-25T01:02:37.307Z,15.00
2022-12-25T01:02:47.899Z,14.70
2022-12-25T01:02:57.285Z,17.10
2022-12-25T01:03:07.094Z,12.20
2022-12-25T01:03:17.196Z,10.30
2022-12-25T01:03:27.217Z,7.90
2022-12-25T01:03:37.111Z,8.10
2022-12-25T01:03:47.068Z,7.70
2022-12-25T01:03:57.072Z,8.00
2022-12-25T01:04:07.075Z,6.80
2022-12-25T01:04:17.144Z,8.10
2022-12-25T01:04:27.069Z,8.20
2022-12-25T01:04:37.075Z,8.50
2022-12-25T01:04:47.061Z,5.90
2022-12-25T01:04:57.151Z,9.10
2022-12-25T01:05:07.282Z,14.70
2022-12-25T01:05:17.070Z,14.40
2022-12-25T01:05:27.080Z,8.90
2022-12-25T01:05:37.735Z,7.90
2022-12-25T01:05:47.063Z,8.20
2022-12-25T01:05:57.061Z,8.40
2022-12-25T01:06:07.071Z,7.60
2022-12-25T01:06:17.119Z,7.70
2022-12-25T01:06:27.061Z,13.20
2022-12-25T01:06:37.805Z,15.50
2022-12-25T01:06:47.057Z,16.60
2022-12-25T01:06:57.105Z,11.60
2022-12-25T01:07:07.058Z,11.60
2022-12-25T01:07:17.757Z,10.70
2022-12-25T01:07:27.065Z,7.80
2022-12-25T01:07:37.162Z,6.40
2022-12-25T01:07:47.067Z,10.20
2022-12-25T01:07:57.052Z,13.40
2022-12-25T01:08:07.055Z,13.90
2022-12-25T01:08:17.060Z,14.10
2022-12-25T01:08:27.173Z,15.30
2022-12-25T01:08:37.082Z,21.30
2022-12-25T01:08:47.069Z,24.60
2022-12-25T01:08:57.044Z,24.40
2022-12-25T01:09:07.056Z,18.00
2022-12-25T01:09:17.047Z,12.90
2022-12-25T01:09:27.041Z,8.80
2022-12-25T01:09:37.052Z,10.90
2022-12-25T01:09:47.730Z,7.90
2022-12-25T01:09:57.064Z,12.40
2022-12-25T01:10:07.066Z,9.80
2022-12-25T01:10:17.122Z,7.30
2022-12-25T01:10:27.052Z,4.90
2022-12-25T01:10:37.035Z,10.20
2022-12-25T01:10:47.055Z,12.30
2022-12-25T01:10:57.059Z,12.90
2022-12-25T01:11:07.049Z,7.80
2022-12-25T01:11:17.133Z,6.30
2022-12-25T01:11:27.035Z,7.00
2022-12-25T01:11:37.039Z,13.20
2022-12-25T01:11:47.761Z,16.10
2022-12-25T01:11:57.052Z,17.80
2022-12-25T01:12:07.039Z,15.10
2022-12-25T01:12:17.042Z,15.60
2022-12-25T01:12:27.047Z,12.10
2022-12-25T01:12:37.747Z,8.90
2022-12-25T01:12:47.030Z,9.40
2022-12-25T01:12:57.046Z,18.80
2022-12-25T01:13:07.042Z,19.40
2022-12-25T01:13:17.036Z,17.80
2022-12-25T01:13:27.036Z,14.30
2022-12-25T01:13:37.081Z,18.70
2022-12-25T01:13:47.044Z,16.40
2022-12-25T01:13:57.732Z,12.60
2022-12-25T01:14:07.035Z,13.90
2022-12-25T01:14:17.018Z,20.10
2022-12-25T01:14:27.737Z,22.00
2022-12-25T01:14:37.054Z,21.60
2022-12-25T01:14:47.018Z,24.30
2022-12-25T01:14:57.053Z,20.30
2022-12-25T01:15:07.155Z,14.80
2022-12-25T01:15:17.023Z,11.50
2022-12-25T01:15:27.315Z,17.90
2022-12-25T01:15:37.057Z,18.40
2022-12-25T01:15:47.031Z,15.10
2022-12-25T01:15:57.075Z,10.70
2022-12-25T01:16:07.096Z,17.80
2022-12-25T01:16:17.849Z,15.30
2022-12-25T01:16:27.126Z,13.00
2022-12-25T01:16:37.790Z,9.00
2022-12-25T01:16:47.794Z,21.50
2022-12-25T01:16:57.151Z,26.30
2022-12-25T01:17:07.029Z,20.40
2022-12-25T01:17:17.042Z,7.70
2022-12-25T01:17:27.018Z,5.20
2022-12-25T01:17:37.024Z,8.40
2022-12-25T01:17:47.006Z,10.40
2022-12-25T01:17:57.032Z,10.60
2022-12-25T01:18:08.721Z,7.60
2022-12-25T01:18:17.044Z,10.20
2022-12-25T01:18:27.074Z,12.70
2022-12-25T01:18:37.014Z,21.10
2022-12-25T01:18:47.013Z,18.90
2022-12-25T01:18:57.739Z,17.90
2022-12-25T01:19:07.482Z,9.70
2022-12-25T01:19:17.006Z,11.90
2022-12-25T01:19:27.022Z,12.40
2022-12-25T01:19:37.078Z,12.30
2022-12-25T01:19:47.002Z,12.80
2022-12-25T01:19:57.103Z,13.40
2022-12-25T01:20:06.996Z,17.20
2022-12-25T01:20:17.757Z,12.30
2022-12-25T01:20:27.010Z,22.90
2022-12-25T01:20:37.068Z,20.80
2022-12-25T01:20:47.007Z,26.70
2022-12-25T01:20:57.755Z,11.20
2022-12-25T01:21:07.009Z,11.70
2022-12-25T01:21:16.996Z,10.10
2022-12-25T01:21:27.016Z,10.20
2022-12-25T01:21:36.997Z,8.30
2022-12-25T01:21:46.988Z,7.20
2022-12-25T01:21:57.000Z,10.80
2022-12-25T01:22:07.003Z,10.70
2022-12-25T01:22:17.092Z,8.50
2022-12-25T01:22:27.021Z,7.30
2022-12-25T01:22:36.999Z,7.40
2022-12-25T01:22:47.002Z,8.50
2022-12-25T01:22:57.006Z,18.10
2022-12-25T01:23:06.997Z,20.20
2022-12-25T01:23:16.998Z,15.50
2022-12-25T01:23:27.001Z,5.40
2022-12-25T01:23:36.986Z,5.40
2022-12-25T01:23:47.759Z,5.70
2022-12-25T01:23:56.985Z,7.50
2022-12-25T01:24:06.983Z,9.60
2022-12-25T01:24:16.983Z,7.20
2022-12-25T01:24:26.984Z,6.80
2022-12-25T01:24:37.009Z,6.90
2022-12-25T01:24:46.988Z,8.10
2022-12-25T01:24:57.015Z,18.30
2022-12-25T01:25:07.744Z,22.20
2022-12-25T01:25:16.989Z,20.10
2022-12-25T01:25:26.975Z,16.40
2022-12-25T01:25:37.024Z,16.80
2022-12-25T01:25:47.023Z,21.00
2022-12-25T01:25:56.982Z,18.80
2022-12-25T01:26:06.995Z,17.10
2022-12-25T01:26:16.970Z,13.80
2022-12-25T01:26:26.979Z,14.10
2022-12-25T01:26:37.096Z,11.90
2022-12-25T01:26:46.968Z,11.40
2022-12-25T01:26:56.964Z,9.30
2022-12-25T01:27:07.077Z,14.80
2022-12-25T01:27:16.968Z,15.90
2022-12-25T01:27:26.998Z,15.20
2022-12-25T01:27:36.976Z,12.00
2022-12-25T01:27:46.970Z,13.60
2022-12-25T01:27:57.748Z,13.40
2022-12-25T01:28:06.965Z,9.80
2022-12-25T01:28:17.034Z,9.40
2022-12-25T01:28:26.972Z,11.00
2022-12-25T01:28:37.025Z,18.20
2022-12-25T01:28:46.963Z,20.30
2022-12-25T01:28:56.975Z,20.40
2022-12-25T01:29:06.957Z,16.90
2022-12-25T01:29:17.003Z,18.40
2022-12-25T01:29:26.959Z,14.20
2022-12-25T01:29:36.959Z,8.40
2022-12-25T01:29:46.990Z,5.80
2022-12-25T01:29:56.956Z,7.10
2022-12-25T01:30:06.953Z,7.90
2022-12-25T01:30:16.996Z,8.40
2022-12-25T01:30:26.961Z,7.40
2022-12-25T01:30:36.956Z,9.70
2022-12-25T01:30:47.043Z,8.50
2022-12-25T01:30:57.000Z,12.60
2022-12-25T01:31:06.965Z,10.30
2022-12-25T01:31:17.074Z,10.00
2022-12-25T01:31:27.052Z,8.10
2022-12-25T01:31:37.030Z,8.10
2022-12-25T01:31:46.999Z,10.40
2022-12-25T01:31:57.027Z,10.90
2022-12-25T01:32:07.054Z,13.50
2022-12-25T01:32:16.956Z,8.70
2022-12-25T01:32:26.946Z,8.20
2022-12-25T01:32:37.740Z,8.00
2022-12-25T01:32:46.954Z,12.40
2022-12-25T01:32:56.942Z,12.10
2022-12-25T01:33:06.964Z,9.70
2022-12-25T01:33:16.968Z,8.20
2022-12-25T01:33:26.947Z,8.50
2022-12-25T01:33:36.955Z,10.80
2022-12-25T01:33:46.939Z,7.80
2022-12-25T01:33:56.940Z,9.70
2022-12-25T01:34:07.015Z,10.30
2022-12-25T01:34:16.947Z,9.90
2022-12-25T01:34:26.943Z,11.20
2022-12-25T01:34:36.940Z,11.20
2022-12-25T01:34:51.977Z,18.60
2022-12-25T01:34:57.013Z,15.10
2022-12-25T01:35:07.741Z,15.90
2022-12-25T01:35:16.938Z,10.90
2022-12-25T01:35:26.943Z,9.10
2022-12-25T01:35:36.948Z,7.90
2022-12-25T01:35:46.943Z,11.60
2022-12-25T01:35:56.955Z,11.50
2022-12-25T01:36:06.992Z,20.80
2022-12-25T01:36:16.964Z,17.30
2022-12-25T01:36:26.931Z,24.40
2022-12-25T01:36:36.932Z,13.10
2022-12-25T01:36:46.927Z,13.60
2022-12-25T01:36:57.018Z,12.90
2022-12-25T01:37:06.929Z,17.60
2022-12-25T01:37:16.924Z,21.10
2022-12-25T01:37:26.927Z,19.50
2022-12-25T01:37:37.750Z,17.20
2022-12-25T01:37:46.996Z,15.60
2022-12-25T01:37:56.933Z,12.70
2022-12-25T01:38:06.943Z,12.20
2022-12-25T01:38:17.744Z,9.90
2022-12-25T01:38:26.939Z,10.50
2022-12-25T01:38:36.917Z,10.00
2022-12-25T01:38:46.936Z,10.10
2022-12-25T01:38:56.914Z,17.80
2022-12-25T01:39:07.757Z,15.70
2022-12-25T01:39:16.930Z,13.70
2022-12-25T01:39:26.917Z,9.60
2022-12-25T01:39:36.947Z,9.90
2022-12-25T01:39:46.912Z,14.00
2022-12-25T01:39:56.933Z,7.80
2022-12-25T01:40:06.935Z,11.40
2022-12-25T01:40:16.919Z,9.60
2022-12-25T01:40:26.928Z,9.50
2022-12-25T01:40:36.955Z,10.30
2022-12-25T01:40:46.913Z,10.00
2022-12-25T01:40:56.922Z,12.30
2022-12-25T01:41:06.955Z,10.20
2022-12-25T01:41:17.335Z,10.90
2022-12-25T01:41:26.939Z,12.00
2022-12-25T01:41:36.997Z,11.90
2022-12-25T01:41:46.906Z,11.30
2022-12-25T01:41:56.977Z,8.20
2022-12-25T01:42:06.900Z,11.60
2022-12-25T01:42:16.899Z,11.60
2022-12-25T01:42:27.746Z,12.20
2022-12-25T01:42:36.944Z,8.70
2022-12-25T01:42:46.912Z,8.10
2022-12-25T01:42:56.904Z,8.70
2022-12-25T01:43:06.919Z,9.20
2022-12-25T01:43:18.749Z,13.80
2022-12-25T01:43:26.894Z,14.50
2022-12-25T01:43:36.914Z,13.80
2022-12-25T01:43:46.900Z,8.70
2022-12-25T01:43:56.928Z,14.80
2022-12-25T01:44:06.927Z,12.50
2022-12-25T01:44:16.909Z,18.50
2022-12-25T01:44:26.892Z,18.30
2022-12-25T01:44:36.985Z,18.40
2022-12-25T01:44:46.901Z,16.40
2022-12-25T01:44:56.971Z,11.10
2022-12-25T01:45:06.944Z,14.30
2022-12-25T01:45:16.894Z,16.90
2022-12-25T01:45:26.916Z,16.90
2022-12-25T01:45:37.018Z,22.30
2022-12-25T01:45:46.923Z,20.20
2022-12-25T01:45:56.918Z,24.70
2022-12-25T01:46:09.828Z,19.10
2022-12-25T01:46:16.991Z,15.00
2022-12-25T01:46:26.962Z,10.90
2022-12-25T01:46:36.891Z,9.30
2022-12-25T01:46:46.885Z,15.30
2022-12-25T01:46:56.882Z,14.80
2022-12-25T01:47:06.896Z,20.80
2022-12-25T01:47:16.881Z,16.60
2022-12-25T01:47:26.909Z,17.60
2022-12-25T01:47:36.893Z,13.50
2022-12-25T01:47:46.889Z,12.40
2022-12-25T01:47:56.896Z,11.30
2022-12-25T01:48:06.921Z,11.70
2022-12-25T01:48:16.887Z,19.10
2022-12-25T01:48:26.872Z,27.90
2022-12-25T01:48:36.901Z,28.10
2022-12-25T01:48:46.870Z,19.00
2022-12-25T01:48:56.950Z,10.60
2022-12-25T01:49:06.881Z,10.00
2022-12-25T01:49:16.875Z,11.70
2022-12-25T01:49:26.875Z,19.80
2022-12-25T01:49:36.935Z,23.50
2022-12-25T01:49:46.872Z,27.80
2022-12-25T01:49:56.877Z,20.20
2022-12-25T01:50:06.864Z,24.50
2022-12-25T01:50:17.774Z,18.30
2022-12-25T01:50:26.875Z,15.80
2022-12-25T01:50:36.882Z,8.00
2022-12-25T01:50:46.881Z,10.10
2022-12-25T01:50:56.897Z,12.40
2022-12-25T01:51:06.966Z,12.70
2022-12-25T01:51:16.864Z,13.70
2022-12-25T01:51:26.871Z,15.40
2022-12-25T01:51:36.950Z,14.90
2022-12-25T01:51:46.982Z,12.40
2022-12-25T01:51:56.884Z,12.40
2022-12-25T01:52:06.856Z,16.50
2022-12-25T01:52:21.742Z,16.00
2022-12-25T01:52:26.865Z,9.90
2022-12-25T01:52:36.857Z,14.20
2022-12-25T01:52:46.872Z,18.10
2022-12-25T01:52:56.936Z,23.10
2022-12-25T01:53:07.761Z,16.80
2022-12-25T01:53:16.872Z,10.80
2022-12-25T01:53:26.865Z,8.70
2022-12-25T01:53:36.860Z,9.20
2022-12-25T01:53:46.851Z,13.50
2022-12-25T01:53:56.857Z,15.50
2022-12-25T01:54:06.862Z,15.80
2022-12-25T01:54:16.864Z,9.80
2022-12-25T01:54:26.888Z,10.40
2022-12-25T01:54:36.870Z,8.60
2022-12-25T01:54:46.852Z,13.00
2022-12-25T01:54:56.854Z,13.20
2022-12-25T01:55:06.847Z,17.80
2022-12-25T01:55:16.850Z,17.70
2022-12-25T01:55:26.843Z,20.50
2022-12-25T01:55:36.850Z,19.50
2022-12-25T01:55:46.855Z,18.30
2022-12-25T01:55:56.909Z,16.20
2022-12-25T01:56:06.868Z,19.10
2022-12-25T01:56:16.840Z,13.10
2022-12-25T01:56:26.860Z,14.20
2022-12-25T01:56:36.861Z,12.00
2022-12-25T01:56:47.330Z,19.00
2022-12-25T01:56:56.847Z,21.10
2022-12-25T01:57:06.841Z,21.70
2022-12-25T01:57:17.750Z,21.90
2022-12-25T01:57:26.978Z,18.50
2022-12-25T01:57:36.847Z,20.70
2022-12-25T01:57:46.843Z,17.40
2022-12-25T01:57:56.836Z,16.20
2022-12-25T01:58:06.867Z,13.50
2022-12-25T01:58:16.830Z,13.60
2022-12-25T01:58:26.843Z,13.70
2022-12-25T01:58:36.843Z,13.50
2022-12-25T01:58:46.848Z,14.20
2022-12-25T01:58:56.836Z,12.40
2022-12-25T01:59:06.848Z,19.00
2022-12-25T01:59:16.828Z,17.10
2022-12-25T01:59:26.839Z,19.50
2022-12-25T01:59:36.994Z,12.80
2022-12-25T01:59:46.845Z,12.70
2022-12-25T01:59:56.924Z,11.60
2022-12-25T02:00:07.747Z,11.80
2022-12-25T02:00:16.843Z,9.10
2022-12-25T02:00:26.845Z,16.00
2022-12-25T02:00:36.879Z,11.90
2022-12-25T02:00:46.861Z,16.20
2022-12-25T02:00:56.900Z,18.80
2022-12-25T02:01:06.869Z,24.80
2022-12-25T02:01:17.004Z,20.80
2022-12-25T02:01:27.078Z,17.00
2022-12-25T02:01:36.919Z,13.70
2022-12-25T02:01:47.021Z,15.70
2022-12-25T02:01:57.152Z,10.40
2022-12-25T02:02:07.040Z,9.70
2022-12-25T02:02:16.934Z,11.10
2022-12-25T02:02:26.938Z,16.00
2022-12-25T02:02:37.827Z,18.50
2022-12-25T02:02:46.979Z,17.00
2022-12-25T02:02:57.003Z,20.20
2022-12-25T02:03:07.035Z,19.70
2022-12-25T02:03:16.922Z,19.70
2022-12-25T02:03:26.886Z,9.40
2022-12-25T02:03:37.784Z,8.90
2022-12-25T02:03:46.812Z,10.00
2022-12-25T02:03:56.807Z,11.90
2022-12-25T02:04:06.814Z,11.50
2022-12-25T02:04:17.755Z,9.40
2022-12-25T02:04:26.810Z,11.00
2022-12-25T02:04:36.811Z,13.10
2022-12-25T02:04:46.804Z,19.00
2022-12-25T02:04:56.826Z,24.60
2022-12-25T02:05:06.811Z,20.20
2022-12-25T02:05:16.822Z,14.40
2022-12-25T02:05:26.838Z,12.10
2022-12-25T02:05:36.813Z,16.80
2022-12-25T02:05:46.805Z,22.30
2022-12-25T02:05:56.813Z,22.10
2022-12-25T02:06:06.799Z,23.30
2022-12-25T02:06:16.803Z,20.60
2022-12-25T02:06:26.799Z,18.70
2022-12-25T02:06:36.867Z,12.80
2022-12-25T02:06:46.800Z,10.50
2022-12-25T02:06:56.800Z,9.70
2022-12-25T02:07:06.894Z,12.20
2022-12-25T02:07:16.824Z,9.90
2022-12-25T02:07:26.801Z,12.30
2022-12-25T02:07:36.798Z,8.40
2022-12-25T02:07:46.797Z,13.40
2022-12-25T02:07:56.923Z,17.80
2022-12-25T02:08:06.792Z,32.80
2022-12-25T02:08:16.802Z,30.70
2022-12-25T02:08:26.841Z,26.00
2022-12-25T02:08:37.774Z,13.40
2022-12-25T02:08:46.798Z,17.40
2022-12-25T02:08:56.798Z,23.10
2022-12-25T02:09:06.788Z,28.30
2022-12-25T02:09:16.812Z,23.60
2022-12-25T02:09:26.804Z,16.70
2022-12-25T02:09:36.791Z,13.60
2022-12-25T02:09:46.814Z,11.00
2022-12-25T02:09:56.802Z,14.70
2022-12-25T02:10:06.794Z,12.80